Time;durP1;ratioP1;P1;durP2;ratioP2;P2;SDS_P1;SDS_P2;PMS_P1;PMS_P2;Temp;Humidity;BMP_temperature;BMP_pressure;BME280_temperature;BME280_humidity;BME280_pressure;Samples;Min_cycle;Max_cycle;Signal;HPM_P1;HPM_P2
2023/11/04 00:00:48;;;;;;;1.70;1.53;;;;;;;3.64;100.00;97476.31;6127467;23;20178;-79
2023/11/04 00:03:36;;;;;;;1.93;1.60;;;;;;;3.57;100.00;97494.13;6127464;23;20168;-79
2023/11/04 00:06:05;;;;;;;1.63;1.53;;;;;;;3.51;100.00;97494.00;6101801;23;20175;-79
2023/11/04 00:08:35;;;;;;;2.00;1.73;;;;;;;3.46;100.00;97499.16;6127587;23;20230;-79
2023/11/04 00:11:05;;;;;;;1.83;1.40;;;;;;;3.41;100.00;97487.63;6127357;23;20637;-79
2023/11/04 00:13:36;;;;;;;2.00;1.70;;;;;;;3.41;100.00;97490.28;6102174;23;20168;-79
2023/11/04 00:16:09;;;;;;;2.00;1.60;;;;;;;3.40;100.00;97499.28;6127258;23;20172;-78
2023/11/04 00:18:43;;;;;;;4.10;2.40;;;;;;;3.39;100.00;97502.94;6102501;23;20226;-80
2023/11/04 00:21:13;;;;;;;3.07;2.77;;;;;;;3.35;100.00;97504.44;6125569;23;20168;-79
2023/11/04 00:23:41;;;;;;;2.80;2.47;;;;;;;3.33;100.00;97511.78;6101435;23;20199;-79
2023/11/04 00:26:08;;;;;;;3.27;2.47;;;;;;;3.25;100.00;97518.19;6127140;23;20163;-79
2023/11/04 00:28:52;;;;;;;2.50;2.30;;;;;;;3.27;100.00;97512.66;6128286;23;20156;-79
2023/11/04 00:31:21;;;;;;;2.70;2.50;;;;;;;3.26;100.00;97516.38;6126664;23;20537;-79
2023/11/04 00:33:52;;;;;;;2.67;2.17;;;;;;;3.23;100.00;97514.16;6127143;23;20168;-79
2023/11/04 00:36:28;;;;;;;2.50;2.17;;;;;;;3.21;100.00;97517.03;6125500;23;20187;-79
2023/11/04 00:38:56;;;;;;;2.47;2.20;;;;;;;3.17;100.00;97515.06;6125182;23;20258;-79
2023/11/04 00:41:23;;;;;;;2.67;2.10;;;;;;;3.15;100.00;97517.09;6077045;23;20619;-78
2023/11/04 00:43:51;;;;;;;4.70;2.47;;;;;;;3.10;100.00;97526.53;6126485;23;20248;-79
2023/11/04 00:46:21;;;;;;;3.53;2.13;;;;;;;3.07;100.00;97521.69;6077315;23;20195;-79
2023/11/04 00:48:53;;;;;;;3.40;2.50;;;;;;;3.06;100.00;97530.66;6127441;23;20167;-79
2023/11/04 00:51:21;;;;;;;2.70;2.40;;;;;;;3.02;100.00;97532.13;6102221;23;20159;-79
2023/11/04 00:53:54;;;;;;;2.70;2.50;;;;;;;3.00;100.00;97536.81;6102159;23;20176;-79
2023/11/04 00:56:22;;;;;;;3.30;2.93;;;;;;;2.95;100.00;97527.94;6103078;23;20167;-79
2023/11/04 00:58:51;;;;;;;4.20;3.20;;;;;;;2.94;100.00;97528.97;6127830;23;20172;-79
2023/11/04 01:01:19;;;;;;;3.87;3.47;;;;;;;2.87;100.00;97518.47;6127350;23;20167;-79
2023/11/04 01:03:50;;;;;;;3.17;2.80;;;;;;;2.81;100.00;97516.69;6127283;23;20187;-79
2023/11/04 01:06:18;;;;;;;2.90;2.60;;;;;;;2.78;100.00;97519.81;6127314;23;20164;-79
2023/11/04 01:08:45;;;;;;;2.23;2.10;;;;;;;2.77;100.00;97526.09;6101418;23;20179;-79
2023/11/04 01:11:17;;;;;;;2.33;2.13;;;;;;;2.74;100.00;97529.22;6078720;23;20223;-79
2023/11/04 01:13:48;;;;;;;2.63;2.40;;;;;;;2.69;100.00;97542.28;6101775;23;20171;-79
2023/11/04 01:16:17;;;;;;;3.27;2.50;;;;;;;2.67;100.00;97539.84;6102468;23;20251;-79
2023/11/04 01:18:51;;;;;;;2.50;2.13;;;;;;;2.69;100.00;97550.22;6127700;23;20630;-79
2023/11/04 01:21:20;;;;;;;2.40;2.00;;;;;;;2.69;100.00;97544.09;6101725;23;20175;-79
2023/11/04 01:23:54;;;;;;;3.20;2.57;;;;;;;2.73;100.00;97540.00;6101710;23;20713;-79
2023/11/04 01:26:27;;;;;;;4.23;3.37;;;;;;;2.75;100.00;97538.75;6102849;23;20174;-79
2023/11/04 01:28:54;;;;;;;4.87;4.37;;;;;;;2.82;100.00;97542.13;6128739;23;20152;-79
2023/11/04 01:31:22;;;;;;;5.47;4.40;;;;;;;2.90;100.00;97548.94;6102428;23;20198;-79
2023/11/04 01:33:52;;;;;;;5.57;4.47;;;;;;;2.96;100.00;97550.72;6127920;23;20194;-79
2023/11/04 01:36:24;;;;;;;4.60;4.13;;;;;;;3.02;100.00;97555.13;6103348;23;20171;-79
2023/11/04 01:38:54;;;;;;;7.00;5.00;;;;;;;3.06;100.00;97557.09;6128936;23;20195;-79
2023/11/04 01:41:25;;;;;;;14.77;9.17;;;;;;;3.12;100.00;97560.72;6104610;23;20255;-79
2023/11/04 01:43:58;;;;;;;20.43;14.43;;;;;;;3.19;100.00;97553.47;6105326;23;20182;-80
2023/11/04 01:46:31;;;;;;;19.30;14.60;;;;;;;3.23;100.00;97551.19;6130567;23;20155;-79
2023/11/04 01:48:59;;;;;;;15.40;11.43;;;;;;;3.30;100.00;97560.69;6104952;23;20297;-79
2023/11/04 01:51:29;;;;;;;12.90;9.07;;;;;;;3.36;100.00;97556.34;6104514;23;20171;-79
2023/11/04 01:53:57;;;;;;;9.93;7.20;;;;;;;3.38;100.00;97557.72;6080893;23;20175;-79
2023/11/04 01:56:41;;;;;;;9.60;7.03;;;;;;;3.44;100.00;97550.72;6130417;23;20144;-79
2023/11/04 01:59:14;;;;;;;7.60;5.83;;;;;;;3.46;100.00;97546.00;6104305;23;20548;-79
2023/11/04 02:01:45;;;;;;;4.60;4.20;;;;;;;3.47;100.00;97553.72;6080112;23;20223;-79
2023/11/04 02:04:17;;;;;;;5.30;4.00;;;;;;;3.44;100.00;97540.13;6103916;23;20498;-79
2023/11/04 02:06:46;;;;;;;3.47;3.17;;;;;;;3.39;100.00;97542.66;6079697;23;20696;-79
2023/11/04 02:09:18;;;;;;;3.77;3.20;;;;;;;3.34;100.00;97543.31;6079811;23;20199;-79
2023/11/04 02:11:47;;;;;;;4.87;3.20;;;;;;;3.33;100.00;97547.00;6104358;23;20168;-79
2023/11/04 02:14:19;;;;;;;3.50;3.20;;;;;;;3.29;100.00;97545.81;6104863;23;20168;-79
2023/11/04 02:16:48;;;;;;;3.90;3.40;;;;;;;3.27;100.00;97539.94;6129461;23;20151;-79
2023/11/04 02:19:18;;;;;;;3.53;3.23;;;;;;;3.25;100.00;97544.66;6129137;23;20206;-79
2023/11/04 02:21:57;;;;;;;3.40;3.10;;;;;;;3.24;100.00;97540.41;6082456;23;20170;-79
2023/11/04 02:24:26;;;;;;;3.53;3.03;;;;;;;3.22;100.00;97539.03;6103626;23;20171;-79
2023/11/04 02:27:05;;;;;;;3.60;3.30;;;;;;;3.20;100.00;97541.88;6129470;23;20167;-79
2023/11/04 02:29:38;;;;;;;3.30;3.00;;;;;;;3.22;100.00;97542.44;6129798;23;20217;-79
2023/11/04 02:32:15;;;;;;;3.77;3.40;;;;;;;3.21;100.00;97546.16;6103804;23;20172;-79
2023/11/04 02:34:49;;;;;;;3.60;3.30;;;;;;;3.23;100.00;97551.19;6129414;23;20148;-79
2023/11/04 02:37:19;;;;;;;4.23;3.63;;;;;;;3.26;100.00;97567.47;6129639;23;20155;-79
2023/11/04 02:39:51;;;;;;;3.70;3.40;;;;;;;3.27;100.00;97574.34;6129168;23;20233;-79
2023/11/04 02:42:23;;;;;;;3.53;3.23;;;;;;;3.28;100.00;97583.91;6129239;23;20634;-79
2023/11/04 02:44:56;;;;;;;3.60;3.30;;;;;;;3.30;100.00;97595.09;6129394;23;20182;-79
2023/11/04 02:47:23;;;;;;;4.60;4.10;;;;;;;3.35;100.00;97611.13;6128220;23;20219;-79
2023/11/04 02:49:52;;;;;;;3.70;3.40;;;;;;;3.38;100.00;97618.59;6103941;23;20259;-79
2023/11/04 02:52:22;;;;;;;4.20;3.47;;;;;;;3.43;100.00;97620.59;6129302;23;20183;-79
2023/11/04 02:54:53;;;;;;;4.23;3.83;;;;;;;3.47;100.00;97614.63;6127404;23;20631;-79
2023/11/04 02:57:26;;;;;;;4.20;3.80;;;;;;;3.50;100.00;97605.41;6104997;23;20178;-79
2023/11/04 02:59:56;;;;;;;4.53;4.00;;;;;;;3.52;100.00;97601.53;6103067;23;20167;-79
2023/11/04 03:02:24;;;;;;;5.17;3.93;;;;;;;3.58;100.00;97609.59;6129445;23;20195;-79
2023/11/04 03:04:59;;;;;;;5.37;4.10;;;;;;;3.59;100.00;97612.03;6128270;23;20167;-79
2023/11/04 03:07:27;;;;;;;4.10;3.70;;;;;;;3.61;100.00;97612.59;6103975;23;20198;-79
2023/11/04 03:09:55;;;;;;;4.03;3.73;;;;;;;3.63;100.00;97613.19;6129674;23;20172;-79
2023/11/04 03:12:23;;;;;;;4.20;3.80;;;;;;;3.65;100.00;97612.97;6104016;23;20168;-79
2023/11/04 03:14:53;;;;;;;5.27;4.00;;;;;;;3.65;100.00;97613.78;6129260;23;20239;-79
2023/11/04 03:17:21;;;;;;;4.27;3.70;;;;;;;3.65;100.00;97611.13;6103211;23;20630;-79
2023/11/04 03:19:49;;;;;;;3.93;3.63;;;;;;;3.66;100.00;97617.22;6127515;23;20182;-80
2023/11/04 03:22:18;;;;;;;4.07;3.43;;;;;;;3.65;100.00;97611.13;6102950;23;20175;-79
2023/11/04 03:24:48;;;;;;;4.17;3.23;;;;;;;3.66;100.00;97611.94;6103816;23;20152;-79
2023/11/04 03:27:18;;;;;;;3.57;3.20;;;;;;;3.65;100.00;97605.81;6129182;23;20160;-79
2023/11/04 03:29:52;;;;;;;3.70;3.40;;;;;;;3.66;100.00;97610.09;6078694;23;20168;-79
2023/11/04 03:32:22;;;;;;;3.47;3.03;;;;;;;3.62;100.00;97602.81;6103174;23;20219;-79
2023/11/04 03:34:51;;;;;;;4.53;3.30;;;;;;;3.62;100.00;97600.19;6129182;23;20152;-79
2023/11/04 03:37:22;;;;;;;4.17;3.10;;;;;;;3.62;100.00;97597.53;6127121;23;20172;-79
2023/11/04 03:39:52;;;;;;;3.17;2.87;;;;;;;3.60;100.00;97599.56;6128716;23;20199;-79
2023/11/04 03:42:21;;;;;;;3.47;3.17;;;;;;;3.60;100.00;97599.56;6103349;23;20199;-79
2023/11/04 03:44:49;;;;;;;3.27;2.93;;;;;;;3.61;100.00;97601.19;6103007;23;20183;-79
2023/11/04 03:47:17;;;;;;;3.57;3.10;;;;;;;3.55;100.00;97605.53;6102407;23;20183;-79
2023/11/04 03:49:47;;;;;;;3.07;2.83;;;;;;;3.54;100.00;97603.97;6078911;23;20198;-79
2023/11/04 03:52:15;;;;;;;3.23;2.93;;;;;;;3.49;100.00;97601.16;6127769;23;20535;-79
2023/11/04 03:54:46;;;;;;;2.97;2.73;;;;;;;3.51;100.00;97602.53;6127638;23;20681;-79
2023/11/04 03:57:16;;;;;;;4.90;3.90;;;;;;;3.51;100.00;97597.25;6102930;23;20156;-79
2023/11/04 03:59:47;;;;;;;10.00;7.27;;;;;;;3.53;100.00;97599.69;6127883;23;20164;-79
2023/11/04 04:02:17;;;;;;;5.73;4.80;;;;;;;3.53;100.00;97607.63;6127380;23;20171;-79
2023/11/04 04:04:47;;;;;;;4.57;3.63;;;;;;;3.52;100.00;97603.34;6128095;23;20164;-79
2023/11/04 04:07:15;;;;;;;3.30;3.00;;;;;;;3.52;100.00;97608.66;6076755;23;20168;-79
2023/11/04 04:09:43;;;;;;;2.80;2.50;;;;;;;3.51;100.00;97604.38;6127728;23;20242;-79
2023/11/04 04:12:12;;;;;;;2.40;2.20;;;;;;;3.50;100.00;97594.81;6102039;23;20172;-79
2023/11/04 04:14:45;;;;;;;2.17;1.97;;;;;;;3.48;100.00;97604.84;6128007;23;20174;-80
2023/11/04 04:17:17;;;;;;;4.33;3.23;;;;;;;3.46;100.00;97605.06;6103056;23;20178;-79
2023/11/04 04:19:48;;;;;;;6.10;4.60;;;;;;;3.46;100.00;97605.06;6128038;23;20171;-78
2023/11/04 04:22:19;;;;;;;6.60;4.47;;;;;;;3.43;100.00;97607.34;6127569;23;20247;-79
2023/11/04 04:25:00;;;;;;;4.53;4.07;;;;;;;3.44;100.00;97609.78;6128191;23;20218;-80
2023/11/04 04:27:28;;;;;;;4.43;3.30;;;;;;;3.45;100.00;97613.25;6127813;23;20174;-79
2023/11/04 04:30:01;;;;;;;2.73;2.53;;;;;;;3.44;100.00;97612.44;6128282;23;20168;-79
2023/11/04 04:32:33;;;;;;;2.87;2.60;;;;;;;3.43;100.00;97607.34;6128017;23;20148;-79
2023/11/04 04:35:02;;;;;;;2.70;2.13;;;;;;;3.40;100.00;97611.25;6127635;23;20183;-79
2023/11/04 04:37:31;;;;;;;2.17;1.97;;;;;;;3.42;100.00;97611.81;6102922;23;20167;-79
2023/11/04 04:40:04;;;;;;;2.17;1.70;;;;;;;3.45;100.00;97610.59;6102086;23;20227;-79
2023/11/04 04:42:35;;;;;;;1.90;1.80;;;;;;;3.47;100.00;97614.63;6101179;23;20185;-80
2023/11/04 04:45:10;;;;;;;1.60;1.43;;;;;;;3.49;100.00;97611.75;6126389;23;20160;-79
2023/11/04 04:47:42;;;;;;;2.13;1.70;;;;;;;3.48;100.00;97610.94;6102842;23;20163;-79
2023/11/04 04:50:13;;;;;;;1.57;1.47;;;;;;;3.49;100.00;97614.41;6128477;23;20199;-79
2023/11/04 04:52:47;;;;;;;1.67;1.57;;;;;;;3.53;100.00;97613.75;6128129;23;20171;-79
2023/11/04 04:55:20;;;;;;;2.90;1.43;;;;;;;3.51;100.00;97609.69;6102738;23;20535;-79
2023/11/04 04:57:48;;;;;;;1.70;1.60;;;;;;;3.52;100.00;97619.25;6128011;23;20152;-79
2023/11/04 05:00:16;;;;;;;1.60;1.50;;;;;;;3.53;100.00;97621.69;6128244;23;20190;-79
2023/11/04 05:02:47;;;;;;;1.60;1.50;;;;;;;3.49;100.00;97622.34;6101411;23;20250;-79
2023/11/04 05:05:15;;;;;;;1.40;1.27;;;;;;;3.47;100.00;97627.03;6103546;23;20168;-79
2023/11/04 05:07:45;;;;;;;1.60;1.40;;;;;;;3.46;100.00;97622.78;6127866;23;20235;-79
2023/11/04 05:10:13;;;;;;;2.50;1.50;;;;;;;3.46;100.00;97620.13;6102424;23;20267;-79
2023/11/04 05:12:47;;;;;;;2.00;1.00;;;;;;;3.43;100.00;97617.94;6104027;23;20197;-79
2023/11/04 05:15:18;;;;;;;2.40;1.10;;;;;;;3.39;100.00;97616.78;6128711;23;20219;-79
2023/11/04 05:17:50;;;;;;;1.40;1.00;;;;;;;3.38;100.00;97623.09;6129673;23;20199;-79
2023/11/04 05:20:23;;;;;;;1.47;1.10;;;;;;;3.31;100.00;97617.84;6130383;23;20163;-79
2023/11/04 05:22:54;;;;;;;1.23;1.10;;;;;;;3.29;100.00;97616.47;6105364;23;20610;-79
2023/11/04 05:25:28;;;;;;;1.20;1.10;;;;;;;3.23;100.00;97615.53;6129384;23;20156;-79
2023/11/04 05:27:58;;;;;;;1.77;1.00;;;;;;;3.22;100.00;97613.91;6104415;23;20628;-79
2023/11/04 05:30:26;;;;;;;1.50;1.30;;;;;;;3.17;100.00;97616.44;6129226;23;20226;-78
2023/11/04 05:32:58;;;;;;;5.77;5.13;;;;;;;3.18;100.00;97619.84;6129618;23;20155;-79
2023/11/04 05:35:26;;;;;;;7.97;6.53;;;;;;;3.08;100.00;97618.53;6129173;23;20168;-79
2023/11/04 05:37:58;;;;;;;5.60;5.10;;;;;;;3.03;100.00;97618.38;6129381;23;20148;-79
2023/11/04 05:40:28;;;;;;;4.70;4.30;;;;;;;2.97;100.00;97610.53;6129201;23;20202;-79
2023/11/04 05:42:56;;;;;;;4.03;3.60;;;;;;;2.89;100.00;97605.53;6129996;23;20164;-79
2023/11/04 05:45:24;;;;;;;3.03;2.73;;;;;;;2.83;100.00;97609.88;6129243;23;20171;-79
2023/11/04 05:47:53;;;;;;;1.73;1.63;;;;;;;2.78;100.00;97622.13;6129658;23;20168;-79
2023/11/04 05:50:20;;;;;;;1.80;1.60;;;;;;;2.70;100.00;97610.00;6129479;23;20246;-79
2023/11/04 05:52:49;;;;;;;2.47;1.80;;;;;;;2.69;100.00;97620.78;6129260;23;20184;-79
2023/11/04 05:55:17;;;;;;;1.60;1.43;;;;;;;2.65;100.00;97623.06;6129325;23;20168;-79
2023/11/04 05:57:52;;;;;;;2.10;1.90;;;;;;;2.64;100.00;97624.09;6129249;23;20219;-79
2023/11/04 06:00:21;;;;;;;1.77;1.37;;;;;;;2.62;100.00;97626.94;6129333;23;20172;-79
2023/11/04 06:02:52;;;;;;;1.90;1.70;;;;;;;2.56;100.00;97619.09;6128020;23;20164;-79
2023/11/04 06:05:26;;;;;;;2.53;2.30;;;;;;;2.55;100.00;97628.03;6129565;23;20172;-79
2023/11/04 06:07:54;;;;;;;4.83;4.33;;;;;;;2.53;100.00;97620.31;6129536;23;20168;-79
2023/11/04 06:10:22;;;;;;;5.20;4.70;;;;;;;2.53;100.00;97622.94;6104083;23;20242;-79
2023/11/04 06:12:52;;;;;;;3.40;3.10;;;;;;;2.53;100.00;97622.16;6129242;23;20163;-79
2023/11/04 06:15:22;;;;;;;2.10;1.90;;;;;;;2.53;100.00;97628.25;6129572;23;20160;-79
2023/11/04 06:17:53;;;;;;;2.87;2.27;;;;;;;2.54;100.00;97629.88;6129433;23;20619;-79
2023/11/04 06:20:22;;;;;;;3.10;1.53;;;;;;;2.51;100.00;97640.88;6129509;23;20164;-79
2023/11/04 06:22:50;;;;;;;3.27;1.60;;;;;;;2.51;100.00;97640.88;6104054;23;20171;-79
2023/11/04 06:25:22;;;;;;;1.50;1.40;;;;;;;2.51;100.00;97651.47;6129145;23;20156;-79
2023/11/04 06:27:53;;;;;;;1.30;1.20;;;;;;;2.45;100.00;97660.25;6129815;23;20148;-79
2023/11/04 06:30:22;;;;;;;1.23;1.13;;;;;;;2.52;100.00;97649.63;6103477;23;20235;-79
2023/11/04 06:32:50;;;;;;;1.70;1.50;;;;;;;2.59;100.00;97650.38;6129007;23;20251;-79
2023/11/04 06:35:20;;;;;;;1.97;1.40;;;;;;;2.69;100.00;97658.63;6128203;23;20172;-79
2023/11/04 06:37:51;;;;;;;5.23;4.73;;;;;;;2.79;100.00;97652.84;6130322;23;20164;-79
2023/11/04 06:40:19;;;;;;;5.63;4.67;;;;;;;2.89;100.00;97656.56;6132496;23;20215;-80
2023/11/04 06:42:47;;;;;;;2.60;2.40;;;;;;;3.04;100.00;97653.59;6104519;23;20168;-79
2023/11/04 06:45:20;;;;;;;1.70;1.60;;;;;;;3.17;100.00;97642.88;6129603;23;20211;-79
2023/11/04 06:47:50;;;;;;;1.60;1.50;;;;;;;3.31;100.00;97641.69;6103470;23;20167;-79
2023/11/04 06:50:21;;;;;;;1.60;1.50;;;;;;;3.43;100.00;97647.88;6128756;23;20195;-79
2023/11/04 06:52:49;;;;;;;2.13;1.40;;;;;;;3.53;100.00;97637.56;6128705;23;20226;-78
2023/11/04 06:55:18;;;;;;;1.40;1.30;;;;;;;3.64;100.00;97633.34;6128712;23;20247;-79
2023/11/04 06:57:45;;;;;;;0.80;0.80;;;;;;;3.76;100.00;97636.03;6128651;23;20167;-79
2023/11/04 07:00:23;;;;;;;1.10;1.00;;;;;;;3.88;100.00;97643.00;6129282;23;20151;-79
2023/11/04 07:02:53;;;;;;;1.20;0.93;;;;;;;3.99;100.00;97638.78;6128855;23;20171;-79
2023/11/04 07:05:23;;;;;;;1.10;1.00;;;;;;;4.08;100.00;97640.06;6129075;23;20192;-79
2023/11/04 07:07:55;;;;;;;1.67;1.10;;;;;;;4.17;100.00;97636.06;6129174;23;20152;-79
2023/11/04 07:10:26;;;;;;;0.80;0.80;;;;;;;4.27;100.00;97632.84;6128597;23;20152;-80
2023/11/04 07:12:57;;;;;;;1.53;1.40;;;;;;;4.41;100.00;97639.56;6129059;23;20156;-79
2023/11/04 07:15:29;;;;;;;2.23;1.10;;;;;;;4.51;100.00;97634.50;6103694;23;20171;-79
2023/11/04 07:18:00;;;;;;;2.17;1.10;;;;;;;4.62;100.00;97622.31;6129146;23;20167;-79
2023/11/04 07:20:29;;;;;;;1.33;1.00;;;;;;;4.68;100.00;97622.19;6103543;23;20254;-79
2023/11/04 07:23:01;;;;;;;1.83;0.80;;;;;;;4.77;100.00;97627.94;6129218;23;20171;-79
2023/11/04 07:25:32;;;;;;;1.00;0.90;;;;;;;4.91;100.00;97625.84;6128975;23;20615;-80
2023/11/04 07:28:03;;;;;;;1.70;0.87;;;;;;;5.00;100.00;97627.94;6103755;23;20239;-79
2023/11/04 07:30:37;;;;;;;1.47;1.00;;;;;;;5.10;100.00;97616.72;6129319;23;20180;-80
2023/11/04 07:33:07;;;;;;;1.30;1.20;;;;;;;5.17;100.00;97626.19;6103533;23;20170;-79
2023/11/04 07:35:38;;;;;;;4.20;3.20;;;;;;;5.24;100.00;97613.59;6127630;23;20587;-79
2023/11/04 07:38:05;;;;;;;1.10;1.00;;;;;;;5.30;100.00;97622.47;6129220;23;20246;-79
2023/11/04 07:40:39;;;;;;;1.30;1.00;;;;;;;5.41;100.00;97626.97;6129828;23;20207;-80
2023/11/04 07:43:13;;;;;;;1.20;1.10;;;;;;;5.49;100.00;97623.13;6127970;23;20602;-80
2023/11/04 07:45:45;;;;;;;0.97;0.93;;;;;;;5.55;100.00;97616.88;6125940;23;20177;-80
2023/11/04 07:48:18;;;;;;;0.97;0.93;;;;;;;5.65;100.00;97617.03;6131211;23;20626;-79
2023/11/04 07:50:49;;;;;;;1.20;0.90;;;;;;;5.74;100.00;97624.41;6129354;23;20143;-79
2023/11/04 07:53:17;;;;;;;1.30;1.13;;;;;;;5.85;100.00;97619.28;6104304;23;20168;-79
2023/11/04 07:55:47;;;;;;;1.10;0.87;;;;;;;5.93;100.00;97621.56;6129447;23;20272;-79
2023/11/04 07:58:18;;;;;;;1.10;1.00;;;;;;;6.04;100.00;97612.75;6129328;23;20164;-80
2023/11/04 08:00:53;;;;;;;1.43;1.23;;;;;;;6.16;100.00;97613.47;6080767;23;20172;-80
2023/11/04 08:03:23;;;;;;;1.50;1.27;;;;;;;6.26;100.00;97613.66;6129131;23;20167;-79
2023/11/04 08:05:52;;;;;;;2.20;1.37;;;;;;;6.43;100.00;97617.16;6104399;23;20164;-80
2023/11/04 08:08:20;;;;;;;1.97;1.00;;;;;;;6.53;100.00;97616.50;6128324;23;20168;-79
2023/11/04 08:10:48;;;;;;;1.87;1.03;;;;;;;6.64;100.00;97615.59;6129327;23;20163;-79
2023/11/04 08:13:19;;;;;;;1.07;0.90;;;;;;;6.76;100.00;97615.53;6129253;23;20483;-79
2023/11/04 08:15:52;;;;;;;2.13;1.10;;;;;;;6.87;100.00;97606.63;6128568;23;20146;-79
2023/11/04 08:18:19;;;;;;;1.30;1.20;;;;;;;6.94;100.00;97608.09;6129331;23;20167;-80
2023/11/04 08:20:54;;;;;;;1.40;1.10;;;;;;;7.00;100.00;97606.28;6129416;23;20163;-80
2023/11/04 08:23:23;;;;;;;1.17;1.07;;;;;;;7.09;100.00;97602.94;6129882;23;20183;-79
2023/11/04 08:25:55;;;;;;;3.63;1.60;;;;;;;7.09;100.00;97599.50;6127902;23;20191;-80
2023/11/04 08:28:25;;;;;;;1.70;1.60;;;;;;;7.10;100.00;97609.06;6129556;23;20171;-79
2023/11/04 08:31:00;;;;;;;1.73;1.63;;;;;;;7.18;100.00;97602.53;6106730;23;20587;-79
2023/11/04 08:33:31;;;;;;;1.30;1.17;;;;;;;7.24;100.00;97610.34;6129758;23;20152;-79
2023/11/04 08:36:02;;;;;;;1.20;1.10;;;;;;;7.36;100.00;97607.56;6130240;23;20171;-80
2023/11/04 08:38:32;;;;;;;1.20;1.10;;;;;;;7.45;100.00;97608.75;6129418;23;20599;-80
2023/11/04 08:41:02;;;;;;;0.90;0.90;;;;;;;7.51;100.00;97597.09;6104908;23;20231;-80
2023/11/04 08:43:31;;;;;;;1.20;1.10;;;;;;;7.58;100.00;97605.69;6129676;23;20223;-80
2023/11/04 08:45:59;;;;;;;1.67;0.90;;;;;;;7.62;100.00;97598.81;6130410;23;20171;-79
2023/11/04 08:48:34;;;;;;;1.83;0.90;;;;;;;7.72;100.00;97595.44;6131370;23;20163;-80
2023/11/04 08:51:03;;;;;;;1.03;0.93;;;;;;;7.78;100.00;97595.25;6106095;23;20163;-80
2023/11/04 08:53:32;;;;;;;0.93;0.80;;;;;;;7.82;100.00;97590.22;6132611;23;20167;-79
2023/11/04 08:56:03;;;;;;;0.60;0.60;;;;;;;7.90;100.00;97584.44;6137974;23;20168;-80
2023/11/04 08:58:34;;;;;;;0.90;0.70;;;;;;;7.98;100.00;97571.44;6115071;23;20167;-80
2023/11/04 09:01:04;;;;;;;0.70;0.70;;;;;;;8.11;100.00;97577.44;6117622;23;20167;-81
2023/11/04 09:03:40;;;;;;;0.67;0.67;;;;;;;8.18;100.00;97573.50;6115067;23;20179;-81
2023/11/04 09:06:26;;;;;;;0.90;0.80;;;;;;;8.28;100.00;97575.44;6102238;23;20148;-80
2023/11/04 09:09:00;;;;;;;0.80;0.80;;;;;;;8.34;100.00;97571.81;6095375;23;20629;-81
2023/11/04 09:11:32;;;;;;;1.83;0.90;;;;;;;8.32;100.00;97574.72;6144441;23;20222;-81
2023/11/04 09:14:06;;;;;;;0.90;0.90;;;;;;;8.35;100.00;97573.41;6143639;23;20152;-81
2023/11/04 09:16:37;;;;;;;1.30;1.20;;;;;;;8.50;100.00;97570.03;6116935;23;20164;-81
2023/11/04 09:19:10;;;;;;;1.23;1.13;;;;;;;8.55;100.00;97570.88;6119308;23;20251;-81
2023/11/04 09:21:41;;;;;;;1.20;1.10;;;;;;;8.54;100.00;97563.94;6118727;23;20171;-81
2023/11/04 09:24:14;;;;;;;1.87;1.57;;;;;;;8.57;100.00;97558.09;6097581;23;20192;-81
2023/11/04 09:26:53;;;;;;;1.60;1.43;;;;;;;8.63;100.00;97558.94;6121407;23;20242;-81
2023/11/04 09:29:36;;;;;;;2.37;1.50;;;;;;;8.67;100.00;97554.69;6143241;23;20250;-81
2023/11/04 09:32:11;;;;;;;2.07;1.70;;;;;;;8.80;100.00;97556.91;6145019;23;20174;-81
2023/11/04 09:34:40;;;;;;;5.40;4.10;;;;;;;8.90;100.00;97548.97;6143806;23;20151;-81
2023/11/04 09:37:17;;;;;;;1.67;1.30;;;;;;;8.94;100.00;97542.03;6122368;23;20145;-81
2023/11/04 09:39:58;;;;;;;1.80;1.03;;;;;;;9.04;100.00;97544.75;6101692;23;20203;-81
2023/11/04 09:42:44;;;;;;;1.00;0.90;;;;;;;9.18;100.00;97545.91;6122263;23;20206;-81
2023/11/04 09:45:21;;;;;;;1.93;1.10;;;;;;;9.30;100.00;97545.66;6143815;23;20203;-81
2023/11/04 09:47:52;;;;;;;1.10;1.00;;;;;;;9.41;100.00;97533.94;6137368;23;20171;-81
2023/11/04 09:50:23;;;;;;;1.20;1.10;;;;;;;9.50;100.00;97527.03;6138363;23;20599;-80
2023/11/04 09:53:04;;;;;;;2.00;1.03;;;;;;;9.58;100.00;97525.69;6065843;23;20167;-81
2023/11/04 09:55:53;;;;;;;1.33;0.80;;;;;;;9.66;100.00;97503.78;6138551;23;20184;-81
2023/11/04 09:58:23;;;;;;;1.33;1.07;;;;;;;9.84;100.00;97505.16;6112290;23;20163;-81
2023/11/04 10:00:53;;;;;;;1.20;1.10;;;;;;;9.99;100.00;97497.94;6092157;23;20160;-81
2023/11/04 10:03:24;;;;;;;1.63;0.97;;;;;;;10.07;100.00;97493.94;6114593;23;20238;-81
2023/11/04 10:05:59;;;;;;;1.00;0.90;;;;;;;10.19;100.00;97480.31;6114409;23;20195;-81
2023/11/04 10:08:34;;;;;;;4.67;2.93;;;;;;;10.39;100.00;97478.44;6138065;23;20234;-81
2023/11/04 10:11:02;;;;;;;1.63;1.00;;;;;;;10.65;100.00;97476.50;6113577;23;20178;-80
2023/11/04 10:13:32;;;;;;;1.43;0.80;;;;;;;10.75;100.00;97467.63;6139156;23;20171;-81
2023/11/04 10:16:04;;;;;;;19.87;10.67;;;;;;;10.80;100.00;97468.41;6112982;23;20191;-81
2023/11/04 10:18:33;;;;;;;14.97;8.43;;;;;;;10.95;100.00;97452.28;6112148;23;20160;-80
2023/11/04 10:21:01;;;;;;;11.80;7.47;;;;;;;11.08;100.00;97452.78;6111069;23;20645;-80
2023/11/04 10:23:44;;;;;;;5.17;3.00;;;;;;;11.21;100.00;97444.94;6111320;23;20172;-80
2023/11/04 10:26:27;;;;;;;4.47;2.53;;;;;;;11.28;100.00;97433.91;6136879;23;20148;-80
2023/11/04 10:29:05;;;;;;;5.47;3.27;;;;;;;11.42;100.00;97434.91;6112202;23;20172;-81
2023/11/04 10:31:41;;;;;;;5.07;3.23;;;;;;;11.53;100.00;97439.09;6137300;23;20164;-81
2023/11/04 10:34:14;;;;;;;3.10;2.40;;;;;;;11.62;100.00;97425.94;6138684;23;20179;-81
2023/11/04 10:36:47;;;;;;;1.97;1.30;;;;;;;11.67;100.00;97423.19;6137980;23;20215;-81
2023/11/04 10:39:22;;;;;;;4.70;3.07;;;;;;;11.79;100.00;97416.44;6088855;23;20203;-81
2023/11/04 10:42:04;;;;;;;1.40;1.27;;;;;;;11.89;100.00;97412.88;6089472;23;20246;-80
2023/11/04 10:44:39;;;;;;;6.17;1.60;;;;;;;11.97;100.00;97404.19;6113163;23;20192;-81
2023/11/04 10:47:48;;;;;;;1.03;0.80;;;;;;;11.96;100.00;97391.84;6114102;23;20618;-81
2023/11/04 10:50:35;;;;;;;32.73;14.27;;;;;;;12.07;100.00;97385.31;6115349;23;20168;-80
2023/11/04 10:53:12;;;;;;;27.10;11.40;;;;;;;12.21;100.00;97385.47;6092253;23;20170;-81
2023/11/04 10:55:56;;;;;;;59.17;23.43;;;;;;;12.34;100.00;97377.53;6139743;23;20166;-81
2023/11/04 10:58:32;;;;;;;8.37;4.07;;;;;;;12.37;100.00;97381.50;6115085;23;20204;-81
2023/11/04 11:01:00;;;;;;;56.13;22.70;;;;;;;12.49;100.00;97379.25;6141488;23;20216;-81
2023/11/04 11:03:28;;;;;;;6.07;2.40;;;;;;;12.54;100.00;97371.13;6091049;23;20179;-81
2023/11/04 11:05:58;;;;;;;5.77;1.83;;;;;;;12.59;100.00;97378.34;6141720;23;20201;-81
2023/11/04 11:08:28;;;;;;;14.53;6.10;;;;;;;12.51;100.00;97376.25;6114600;23;20172;-81
2023/11/04 11:11:12;;;;;;;2.40;1.00;;;;;;;12.44;100.00;97370.44;6135240;23;20153;-80
2023/11/04 11:13:42;;;;;;;6.30;2.80;;;;;;;12.52;100.00;97370.59;6105561;23;20186;-79
2023/11/04 11:16:10;;;;;;;13.57;5.93;;;;;;;12.56;100.00;97368.13;6081532;23;20168;-79
2023/11/04 11:18:38;;;;;;;2.23;1.10;;;;;;;12.48;100.00;97360.72;6081353;23;20686;-80
2023/11/04 11:21:11;;;;;;;4.57;2.40;;;;;;;12.58;100.00;97349.88;6105309;23;20175;-80
2023/11/04 11:23:39;;;;;;;12.83;6.57;;;;;;;12.60;100.00;97343.09;6104492;23;20184;-80
2023/11/04 11:26:21;;;;;;;11.17;5.47;;;;;;;12.65;100.00;97343.03;6109284;23;20193;-81
2023/11/04 11:28:51;;;;;;;5.13;2.70;;;;;;;12.64;100.00;97335.28;6116874;23;20156;-80
2023/11/04 11:31:28;;;;;;;2.33;1.00;;;;;;;12.55;100.00;97329.72;6141349;23;20217;-81
2023/11/04 11:34:06;;;;;;;0.97;0.60;;;;;;;12.25;100.00;97330.09;6115977;23;20662;-80
2023/11/04 11:36:37;;;;;;;1.67;0.97;;;;;;;12.34;100.00;97323.81;6115544;23;20490;-81
2023/11/04 11:39:06;;;;;;;1.33;0.87;;;;;;;12.51;100.00;97323.34;6114606;23;20197;-81
2023/11/04 11:41:43;;;;;;;1.80;1.00;;;;;;;12.61;100.00;97322.41;6090191;23;20173;-81
2023/11/04 11:44:14;;;;;;;2.30;1.30;;;;;;;12.75;100.00;97313.38;6091755;23;20251;-81
2023/11/04 11:46:54;;;;;;;0.77;0.50;;;;;;;12.66;100.00;97308.94;6138393;23;20201;-81
2023/11/04 11:49:23;;;;;;;1.60;0.60;;;;;;;12.73;100.00;97309.38;6114974;23;20595;-80
2023/11/04 11:51:52;;;;;;;1.50;1.00;;;;;;;12.69;100.00;97305.69;6091790;23;20170;-81